Time;durP1;ratioP1;P1;durP2;ratioP2;P2;SDS_P1;SDS_P2;PMS_P1;PMS_P2;Temp;Humidity;BMP_temperature;BMP_pressure;BME280_temperature;BME280_humidity;BME280_pressure;Samples;Min_cycle;Max_cycle;Signal;HPM_P1;HPM_P2
2023/06/21 00:01:35;;;;;;;7.68;6.00;;;;;;;20.81;58.39;99612.28;5072993;28;20031;-76
2023/06/21 00:04:00;;;;;;;8.00;6.32;;;;;;;20.76;58.08;99596.06;5071382;28;20157;-76
2023/06/21 00:06:28;;;;;;;8.85;6.38;;;;;;;20.90;58.36;99633.09;5072863;28;20067;-77
2023/06/21 00:08:55;;;;;;;6.85;6.25;;;;;;;20.73;58.03;99593.84;5071601;28;20105;-78
2023/06/21 00:11:21;;;;;;;7.63;6.50;;;;;;;20.62;58.15;99592.88;5072766;28;20028;-77
2023/06/21 00:13:46;;;;;;;7.10;6.50;;;;;;;21.03;58.17;99644.56;5072626;28;20103;-76
2023/06/21 00:16:14;;;;;;;7.32;6.43;;;;;;;20.66;58.08;99588.66;5072211;28;20028;-75
2023/06/21 00:18:39;;;;;;;9.32;6.38;;;;;;;20.44;58.15;99561.72;5072193;28;20021;-77
2023/06/21 00:21:05;;;;;;;7.63;6.25;;;;;;;21.00;58.38;99659.28;5072228;28;20043;-78
2023/06/21 00:23:30;;;;;;;6.90;6.20;;;;;;;20.78;58.22;99620.78;5071980;28;20024;-74
2023/06/21 00:25:55;;;;;;;10.32;6.47;;;;;;;20.92;58.38;99644.41;5072222;28;20063;-76
2023/06/21 00:28:21;;;;;;;7.43;6.55;;;;;;;20.94;58.46;99655.72;5072040;28;20060;-75
2023/06/21 00:30:46;;;;;;;7.13;6.43;;;;;;;20.61;58.47;99608.16;5072061;28;20075;-77
2023/06/21 00:33:12;;;;;;;11.00;6.90;;;;;;;20.71;58.24;99623.63;5072037;28;20111;-76
2023/06/21 00:35:37;;;;;;;8.38;6.45;;;;;;;20.61;58.39;99612.72;5071982;28;20104;-77
2023/06/21 00:38:03;;;;;;;7.63;6.82;;;;;;;20.82;58.50;99651.47;5072011;28;20081;-77
2023/06/21 00:40:28;;;;;;;6.65;5.97;;;;;;;20.35;58.48;99586.47;5071837;28;20029;-76
2023/06/21 00:42:54;;;;;;;10.63;6.07;;;;;;;20.81;58.38;99668.63;5070463;28;20013;-77
2023/06/21 00:45:20;;;;;;;7.97;6.25;;;;;;;20.58;58.22;99622.06;5071976;28;20024;-76
2023/06/21 00:47:46;;;;;;;8.05;6.28;;;;;;;20.48;58.42;99597.72;5070378;28;20449;-77
2023/06/21 00:50:12;;;;;;;7.85;6.95;;;;;;;20.32;58.41;99590.44;5071727;28;20064;-76
2023/06/21 00:52:43;;;;;;;9.85;6.95;;;;;;;20.71;58.56;99655.00;5071559;28;20024;-77
2023/06/21 00:55:09;;;;;;;9.15;6.70;;;;;;;20.57;58.68;99635.69;5071664;28;20020;-76
2023/06/21 00:57:36;;;;;;;8.57;6.88;;;;;;;20.40;58.74;99632.16;5071350;28;20048;-77
2023/06/21 01:00:02;;;;;;;7.22;6.32;;;;;;;20.08;58.76;99589.72;5071699;28;20478;-75
2023/06/21 01:02:27;;;;;;;11.27;7.70;;;;;;;20.52;58.71;99654.38;5070285;28;20024;-76
2023/06/21 01:04:53;;;;;;;8.20;7.10;;;;;;;20.50;58.69;99662.69;5071314;28;20028;-77
2023/06/21 01:08:18;;;;;;;12.70;6.68;;;;;;;20.45;58.93;99662.59;5071518;28;20033;-77
2023/06/21 01:10:53;;;;;;;8.27;6.65;;;;;;;20.45;58.81;99665.25;5009909;28;20486;-77
2023/06/21 01:13:39;;;;;;;9.70;6.38;;;;;;;20.38;58.71;99664.56;5009805;28;20104;-76
2023/06/21 01:16:15;;;;;;;7.80;6.28;;;;;;;19.71;58.71;99572.31;5060298;28;20474;-76
2023/06/21 01:18:45;;;;;;;10.32;6.80;;;;;;;19.75;59.16;99585.00;5071460;28;20028;-76
2023/06/21 01:21:16;;;;;;;10.30;7.00;;;;;;;19.79;58.97;99588.84;5071455;28;20047;-76
2023/06/21 01:24:13;;;;;;;8.35;6.47;;;;;;;20.18;59.03;99653.44;5071304;28;20036;-76
2023/06/21 01:26:52;;;;;;;10.50;6.30;;;;;;;20.15;58.96;99654.72;5071807;28;20116;-76
2023/06/21 01:29:26;;;;;;;9.02;6.60;;;;;;;20.02;59.25;99641.56;5070150;28;20103;-76
2023/06/21 01:31:55;;;;;;;12.38;6.85;;;;;;;19.97;58.97;99622.69;5071330;28;20028;-76
2023/06/21 01:34:21;;;;;;;10.65;6.90;;;;;;;19.56;59.13;99564.78;5071397;28;20025;-76
2023/06/21 01:36:47;;;;;;;13.77;6.78;;;;;;;19.61;59.13;99572.94;5071308;28;20425;-76
2023/06/21 01:39:12;;;;;;;11.82;6.97;;;;;;;19.98;59.31;99638.53;5071256;28;20029;-76
2023/06/21 01:41:38;;;;;;;11.40;6.82;;;;;;;19.97;59.33;99641.47;5071386;28;20024;-76
2023/06/21 01:44:07;;;;;;;10.75;6.95;;;;;;;20.07;59.41;99656.97;5069847;28;20389;-76
2023/06/21 01:46:33;;;;;;;10.30;6.50;;;;;;;19.35;59.37;99552.81;5071249;28;20025;-76
2023/06/21 01:49:00;;;;;;;10.15;6.70;;;;;;;19.47;59.36;99580.38;5071467;28;20103;-76
2023/06/21 01:51:26;;;;;;;10.52;7.25;;;;;;;19.97;59.49;99649.50;5071627;28;20056;-77
2023/06/21 01:53:52;;;;;;;12.63;7.10;;;;;;;19.56;59.31;99581.66;5071301;28;20047;-76
2023/06/21 01:56:18;;;;;;;11.68;6.95;;;;;;;19.59;59.30;99581.19;5071142;28;20029;-76
2023/06/21 01:58:48;;;;;;;9.40;6.25;;;;;;;20.12;59.01;99659.75;5069959;28;20055;-76
2023/06/21 02:01:15;;;;;;;9.63;6.72;;;;;;;19.50;59.15;99549.63;5071096;28;20033;-76
2023/06/21 02:03:44;;;;;;;8.23;6.40;;;;;;;20.10;59.17;99657.31;5071233;28;20024;-76
2023/06/21 02:06:11;;;;;;;9.27;6.82;;;;;;;19.70;59.31;99610.88;5071017;28;20028;-76
2023/06/21 02:08:38;;;;;;;9.75;6.82;;;;;;;19.42;59.41;99552.69;5071076;28;20016;-76
2023/06/21 02:11:04;;;;;;;10.75;6.78;;;;;;;20.05;59.31;99664.41;5070872;28;20021;-76
2023/06/21 02:13:29;;;;;;;12.18;8.13;;;;;;;20.06;59.24;99656.13;5071152;28;20029;-76
2023/06/21 02:15:55;;;;;;;11.52;6.53;;;;;;;19.94;59.36;99644.63;5070786;28;20028;-76
2023/06/21 02:18:22;;;;;;;8.13;6.75;;;;;;;19.57;59.36;99577.13;5070748;28;20024;-76
2023/06/21 02:20:47;;;;;;;11.82;7.00;;;;;;;20.07;59.28;99665.00;5073404;28;20031;-77
2023/06/21 02:23:13;;;;;;;8.70;6.53;;;;;;;19.55;59.38;99582.72;5074515;28;20404;-76
2023/06/21 02:25:38;;;;;;;13.32;6.43;;;;;;;19.57;59.22;99579.81;5074384;28;20040;-77
2023/06/21 02:28:04;;;;;;;13.52;7.10;;;;;;;20.09;58.90;99650.31;5073110;28;20038;-77
2023/06/21 02:30:29;;;;;;;9.50;6.93;;;;;;;20.10;58.95;99667.22;5074384;28;20032;-76
2023/06/21 02:32:55;;;;;;;8.32;7.03;;;;;;;20.17;59.00;99667.91;5074135;28;20052;-77
2023/06/21 02:35:20;;;;;;;11.95;7.28;;;;;;;19.59;58.85;99589.25;5074238;28;20021;-76
2023/06/21 02:37:47;;;;;;;10.68;7.05;;;;;;;20.07;59.15;99668.50;5072948;28;20036;-77
2023/06/21 02:40:13;;;;;;;9.25;7.32;;;;;;;20.04;59.06;99671.63;5074684;28;20034;-77
2023/06/21 02:42:39;;;;;;;11.05;6.80;;;;;;;19.98;59.25;99670.72;5074091;28;20032;-76
2023/06/21 02:45:06;;;;;;;9.95;7.07;;;;;;;19.33;59.23;99581.66;5074060;28;20045;-76
2023/06/21 02:47:31;;;;;;;11.23;6.93;;;;;;;19.90;59.33;99670.25;5074015;28;20107;-76
2023/06/21 02:49:56;;;;;;;12.15;6.90;;;;;;;19.87;59.26;99660.81;5074153;28;20108;-76
2023/06/21 02:52:22;;;;;;;10.07;7.10;;;;;;;19.36;59.56;99587.38;5073875;28;20390;-76
2023/06/21 02:54:47;;;;;;;14.35;7.45;;;;;;;19.29;59.49;99580.47;5072601;28;20017;-77
2023/06/21 02:57:12;;;;;;;9.70;6.90;;;;;;;19.44;59.46;99599.59;5073771;28;20052;-76
2023/06/21 02:59:38;;;;;;;8.07;6.43;;;;;;;19.39;59.22;99599.47;5073741;28;20103;-76
2023/06/21 03:02:04;;;;;;;8.18;6.57;;;;;;;19.74;59.38;99658.41;5074035;28;20101;-77
2023/06/21 03:04:30;;;;;;;9.68;6.97;;;;;;;19.67;59.58;99661.19;5073554;28;20460;-76
2023/06/21 03:06:56;;;;;;;13.32;7.18;;;;;;;19.85;59.41;99680.88;5073600;28;20104;-76
2023/06/21 03:09:22;;;;;;;11.35;7.13;;;;;;;19.75;59.36;99696.72;5072268;28;20020;-76
2023/06/21 03:11:48;;;;;;;10.98;6.38;;;;;;;19.43;59.36;99619.38;5073654;28;20537;-77
2023/06/21 03:14:14;;;;;;;10.05;6.57;;;;;;;19.05;59.05;99577.81;5073502;28;20056;-77
2023/06/21 03:16:40;;;;;;;8.30;6.80;;;;;;;19.79;59.23;99701.38;5073631;28;20062;-76
2023/06/21 03:19:07;;;;;;;12.20;6.68;;;;;;;19.42;59.37;99633.81;5073394;28;20103;-77
2023/06/21 03:21:33;;;;;;;11.32;7.43;;;;;;;19.82;59.49;99702.78;5073490;28;20031;-76
2023/06/21 03:23:59;;;;;;;10.75;7.47;;;;;;;19.62;59.35;99660.28;5073391;28;20023;-76
2023/06/21 03:26:24;;;;;;;10.85;6.07;;;;;;;19.40;59.26;99625.22;5073438;28;20447;-77
2023/06/21 03:28:49;;;;;;;12.38;7.07;;;;;;;19.71;59.28;99680.28;5073539;28;20508;-76
2023/06/21 03:31:15;;;;;;;13.23;6.85;;;;;;;19.40;59.23;99646.63;5072308;28;20472;-77
2023/06/21 03:33:40;;;;;;;9.07;6.28;;;;;;;19.64;59.12;99660.84;5073268;28;20029;-76
2023/06/21 03:36:05;;;;;;;11.15;6.82;;;;;;;19.47;59.33;99630.44;5073126;28;20039;-77
2023/06/21 03:38:31;;;;;;;17.15;6.97;;;;;;;19.74;59.30;99687.88;5073004;28;20111;-76
2023/06/21 03:40:56;;;;;;;11.95;6.68;;;;;;;19.74;59.26;99684.38;5072851;28;20111;-77
2023/06/21 03:43:22;;;;;;;12.05;7.22;;;;;;;19.47;59.16;99627.75;5072813;28;20021;-76
2023/06/21 03:45:47;;;;;;;8.70;5.93;;;;;;;19.44;59.13;99618.34;5072933;28;20021;-77
2023/06/21 03:48:12;;;;;;;10.52;6.45;;;;;;;19.57;58.86;99636.06;5073230;28;20060;-76
2023/06/21 03:50:38;;;;;;;13.07;7.63;;;;;;;20.02;59.04;99707.75;5072888;28;20024;-76
2023/06/21 03:53:03;;;;;;;9.85;6.78;;;;;;;19.58;58.95;99635.00;5072868;28;20024;-76
2023/06/21 03:55:29;;;;;;;10.25;6.95;;;;;;;19.64;58.85;99640.25;5071680;28;20503;-76
2023/06/21 03:57:54;;;;;;;9.85;6.60;;;;;;;19.89;59.03;99682.03;5072739;28;20094;-76
2023/06/21 04:00:20;;;;;;;11.85;6.82;;;;;;;19.97;58.64;99682.47;5072674;28;20107;-76
2023/06/21 04:02:45;;;;;;;13.35;7.47;;;;;;;20.11;58.61;99698.34;5072592;28;20028;-77
2023/06/21 04:05:11;;;;;;;8.98;7.03;;;;;;;20.27;58.72;99705.63;5072372;28;20032;-76
2023/06/21 04:07:40;;;;;;;10.10;7.05;;;;;;;19.85;59.04;99649.53;5071117;28;20081;-77
2023/06/21 04:10:06;;;;;;;10.07;7.03;;;;;;;20.01;58.48;99645.28;5072464;28;20033;-76
2023/06/21 04:12:31;;;;;;;11.82;7.30;;;;;;;20.10;58.61;99645.78;5072139;28;20029;-77
2023/06/21 04:15:00;;;;;;;10.52;7.10;;;;;;;20.24;58.34;99664.03;5072131;28;20026;-76
2023/06/21 04:17:26;;;;;;;14.65;7.70;;;;;;;20.45;58.37;99678.66;5072103;28;20398;-77
2023/06/21 04:19:51;;;;;;;10.30;6.88;;;;;;;20.62;58.54;99710.91;5070848;28;20035;-77
2023/06/21 04:22:16;;;;;;;9.52;6.90;;;;;;;20.57;58.63;99695.53;5072258;28;20029;-77
2023/06/21 04:24:42;;;;;;;10.52;8.25;;;;;;;20.67;58.65;99708.31;5072062;28;20032;-76
2023/06/21 04:27:07;;;;;;;10.07;7.45;;;;;;;20.59;58.54;99679.19;5072117;28;20063;-76
2023/06/21 04:29:39;;;;;;;9.02;7.65;;;;;;;20.84;58.62;99719.94;5070781;28;20050;-76
2023/06/21 04:32:04;;;;;;;;;;;;;;;20.76;59.34;99706.88;5070961;28;20591;-77
2023/06/21 04:34:29;;;;;;;8.95;8.18;;;;;;;20.93;58.77;99707.75;5071884;28;19944;-77
2023/06/21 04:36:55;;;;;;;9.77;8.77;;;;;;;20.60;58.45;99645.94;5070711;28;20551;-76
2023/06/21 04:39:21;;;;;;;10.40;8.50;;;;;;;21.17;58.66;99710.31;5071974;28;20099;-76
2023/06/21 04:41:46;;;;;;;9.60;8.70;;;;;;;21.27;58.44;99723.94;5071662;28;20111;-78
2023/06/21 04:44:17;;;;;;;11.18;9.25;;;;;;;21.01;58.33;99665.47;5070020;28;20054;-77
2023/06/21 04:46:42;;;;;;;11.02;9.98;;;;;;;21.41;58.36;99719.06;5071661;28;20030;-77
2023/06/21 04:49:08;;;;;;;9.80;8.70;;;;;;;21.39;58.23;99708.56;5071665;28;20024;-77
2023/06/21 04:51:33;;;;;;;11.18;9.38;;;;;;;21.54;58.34;99716.03;5072101;28;20024;-77
2023/06/21 04:53:59;;;;;;;9.65;8.60;;;;;;;21.64;58.18;99723.47;5070231;28;20058;-77
2023/06/21 04:56:28;;;;;;;10.43;9.30;;;;;;;21.70;58.06;99715.25;5071660;28;20134;-77
2023/06/21 04:58:54;;;;;;;10.68;9.13;;;;;;;21.79;58.01;99718.31;5070090;28;20109;-77
2023/06/21 05:01:19;;;;;;;11.25;10.13;;;;;;;21.87;57.96;99718.72;5071872;28;20512;-77
2023/06/21 05:03:48;;;;;;;10.55;9.52;;;;;;;21.46;57.79;99647.41;5071696;28;20028;-77
2023/06/21 05:06:15;;;;;;;9.30;8.40;;;;;;;22.03;57.78;99718.94;5072069;28;20485;-77
2023/06/21 05:08:40;;;;;;;9.35;8.15;;;;;;;21.67;57.93;99645.06;5071826;28;20021;-76
2023/06/21 05:11:06;;;;;;;9.95;8.95;;;;;;;21.87;57.81;99670.31;5072094;28;20410;-76
2023/06/21 05:13:32;;;;;;;9.43;8.20;;;;;;;22.24;57.56;99725.41;5072208;28;20029;-77
2023/06/21 05:15:58;;;;;;;8.98;8.07;;;;;;;22.19;57.46;99710.84;5072229;28;20537;-77
2023/06/21 05:18:23;;;;;;;11.77;9.27;;;;;;;22.08;57.47;99687.56;5072259;28;20111;-76
2023/06/21 05:20:49;;;;;;;9.45;8.48;;;;;;;22.33;57.45;99732.81;5071106;28;20021;-76
2023/06/21 05:23:14;;;;;;;12.73;8.82;;;;;;;21.90;57.46;99652.88;5071529;28;20025;-76
2023/06/21 05:25:39;;;;;;;9.18;8.23;;;;;;;21.98;57.20;99659.69;5071411;28;20039;-76
2023/06/21 05:28:05;;;;;;;8.68;7.88;;;;;;;22.52;57.03;99741.38;5070171;28;20154;-77
2023/06/21 05:30:30;;;;;;;9.60;8.70;;;;;;;22.41;56.98;99712.72;5071379;28;20025;-77
2023/06/21 05:32:56;;;;;;;9.15;7.93;;;;;;;22.54;56.88;99717.72;5071452;28;20018;-77
2023/06/21 05:35:21;;;;;;;9.38;8.40;;;;;;;22.60;56.68;99722.09;5071432;28;20023;-76
2023/06/21 05:37:46;;;;;;;11.18;9.10;;;;;;;22.37;56.65;99690.09;5072348;28;20408;-78
2023/06/21 05:40:12;;;;;;;10.70;8.80;;;;;;;22.30;56.44;99674.13;5072964;28;20021;-75
2023/06/21 05:42:37;;;;;;;9.43;8.48;;;;;;;22.47;56.34;99693.72;5071249;28;20056;-76
2023/06/21 05:45:05;;;;;;;9.43;8.45;;;;;;;22.76;55.99;99737.34;5071117;28;20029;-75
2023/06/21 05:47:31;;;;;;;9.13;8.35;;;;;;;22.87;55.75;99741.00;5069648;28;20032;-78
2023/06/21 05:49:56;;;;;;;9.05;8.27;;;;;;;22.66;55.75;99710.31;5070330;28;20485;-76
2023/06/21 05:52:21;;;;;;;10.50;9.05;;;;;;;22.62;55.52;99690.38;5070700;28;20032;-76
2023/06/21 05:54:47;;;;;;;9.32;8.02;;;;;;;23.03;55.12;99745.47;5071966;28;20048;-77
2023/06/21 05:57:12;;;;;;;9.95;7.53;;;;;;;22.48;55.03;99654.97;5074475;28;20063;-77
2023/06/21 05:59:38;;;;;;;8.38;7.60;;;;;;;22.99;55.00;99724.69;5074790;28;20031;-77
2023/06/21 06:02:05;;;;;;;10.40;8.40;;;;;;;22.66;54.67;99653.81;5074525;28;20486;-76
2023/06/21 06:04:31;;;;;;;8.35;7.28;;;;;;;22.57;54.62;99636.50;5074607;28;20516;-77
2023/06/21 06:06:56;;;;;;;8.45;7.65;;;;;;;22.97;54.46;99692.63;5073484;28;20028;-78
2023/06/21 06:09:23;;;;;;;9.90;7.80;;;;;;;23.27;54.27;99732.50;5074723;28;20085;-76
2023/06/21 06:11:50;;;;;;;9.63;8.10;;;;;;;22.93;54.36;99675.34;5077065;28;20485;-77
2023/06/21 06:14:16;;;;;;;8.25;6.97;;;;;;;23.46;54.06;99746.41;5091329;28;20030;-76
2023/06/21 06:16:41;;;;;;;8.50;7.65;;;;;;;23.34;54.17;99721.53;5089140;28;20024;-76
2023/06/21 06:19:07;;;;;;;8.93;8.07;;;;;;;23.21;53.76;99685.06;5074389;28;20041;-77
2023/06/21 06:21:32;;;;;;;8.57;7.78;;;;;;;23.27;53.66;99688.59;5072162;28;20033;-76
2023/06/21 06:23:57;;;;;;;7.80;7.07;;;;;;;23.74;53.46;99754.19;5074079;28;20067;-77
2023/06/21 06:26:25;;;;;;;8.25;7.45;;;;;;;23.44;53.43;99681.19;5075196;28;20081;-74
2023/06/21 06:28:52;;;;;;;9.02;7.45;;;;;;;22.42;52.99;99539.47;5073890;28;20107;-75
2023/06/21 06:31:20;;;;;;;8.27;7.40;;;;;;;23.91;52.45;99737.06;5079209;28;20054;-76
2023/06/21 06:33:45;;;;;;;8.60;7.80;;;;;;;23.73;52.33;99704.03;5094639;28;20032;-78
2023/06/21 06:36:11;;;;;;;8.10;7.30;;;;;;;23.52;52.15;99652.94;5079224;28;20028;-75
2023/06/21 06:38:36;;;;;;;8.32;7.22;;;;;;;23.73;51.66;99666.31;5091551;28;20553;-77
2023/06/21 06:41:01;;;;;;;6.90;6.25;;;;;;;23.82;51.55;99680.13;5090523;28;20027;-77
2023/06/21 06:43:27;;;;;;;8.82;7.00;;;;;;;23.98;51.33;99698.00;5086955;28;20025;-77
2023/06/21 06:45:52;;;;;;;7.97;7.20;;;;;;;24.14;50.98;99714.28;5073639;28;20497;-76
2023/06/21 06:48:18;;;;;;;9.50;7.88;;;;;;;23.95;51.13;99671.56;5078832;28;20051;-77
2023/06/21 06:50:43;;;;;;;8.77;7.25;;;;;;;24.16;50.62;99701.31;5093954;28;20409;-76
2023/06/21 06:53:08;;;;;;;8.10;7.40;;;;;;;24.42;50.73;99734.66;5090693;28;20035;-77
2023/06/21 06:55:35;;;;;;;10.13;7.85;;;;;;;24.35;51.01;99707.91;5094002;28;20118;-76
2023/06/21 06:58:01;;;;;;;8.60;7.65;;;;;;;23.87;51.27;99634.31;5076315;28;20050;-77
2023/06/21 07:00:27;;;;;;;7.70;7.00;;;;;;;24.25;51.08;99675.47;5077002;28;20036;-75
2023/06/21 07:02:56;;;;;;;7.43;6.72;;;;;;;24.69;51.00;99730.72;5074793;28;20023;-76
2023/06/21 07:05:23;;;;;;;7.40;6.80;;;;;;;24.34;51.18;99671.22;5083098;28;20413;-75
2023/06/21 07:07:48;;;;;;;7.90;7.20;;;;;;;24.27;51.27;99644.47;5093037;28;20035;-76
2023/06/21 07:10:14;;;;;;;10.02;7.22;;;;;;;24.82;51.39;99712.38;5093943;28;20032;-76
2023/06/21 07:12:39;;;;;;;9.38;7.30;;;;;;;24.91;51.65;99727.00;5073892;28;20032;-76
2023/06/21 07:15:05;;;;;;;8.88;7.97;;;;;;;24.58;51.49;99653.47;5087259;28;20027;-78
2023/06/21 07:17:30;;;;;;;8.18;7.38;;;;;;;24.69;51.62;99662.41;5093966;28;20034;-77
2023/06/21 07:19:56;;;;;;;7.75;7.05;;;;;;;24.88;51.20;99684.31;5090431;28;20055;-78
2023/06/21 07:22:22;;;;;;;7.25;6.55;;;;;;;25.12;51.01;99707.06;5080477;28;20055;-76
2023/06/21 07:24:47;;;;;;;14.55;13.05;;;;;;;24.95;51.30;99671.34;5093747;28;20032;-78
2023/06/21 07:27:13;;;;;;;8.60;7.63;;;;;;;25.12;50.91;99681.94;5079125;28;20539;-77
2023/06/21 07:29:38;;;;;;;8.50;7.65;;;;;;;25.14;50.82;99679.75;5079601;28;20465;-77
2023/06/21 07:32:04;;;;;;;8.25;7.40;;;;;;;25.18;50.13;99681.66;5093323;28;20114;-75
2023/06/21 07:34:30;;;;;;;8.63;7.82;;;;;;;25.01;50.07;99646.00;5081004;28;20059;-76
2023/06/21 07:36:55;;;;;;;9.20;8.40;;;;;;;25.47;50.07;99705.44;5073260;28;20036;-76
2023/06/21 07:39:21;;;;;;;9.73;8.82;;;;;;;25.43;49.63;99696.25;5072962;28;20056;-76
2023/06/21 07:41:46;;;;;;;7.60;6.72;;;;;;;25.64;49.21;99712.19;5077743;28;20029;-76
2023/06/21 07:44:12;;;;;;;9.15;7.97;;;;;;;25.02;49.03;99596.28;5071678;28;20481;-75
2023/06/21 07:46:37;;;;;;;9.18;6.72;;;;;;;25.79;48.45;99722.19;5073009;28;20032;-77
2023/06/21 07:49:03;;;;;;;7.88;7.03;;;;;;;25.53;48.48;99656.50;5077739;28;20082;-75
2023/06/21 07:51:29;;;;;;;7.75;7.03;;;;;;;25.97;48.04;99716.19;5092901;28;20031;-75
2023/06/21 07:53:54;;;;;;;7.10;6.47;;;;;;;26.07;47.73;99720.81;5092770;28;20024;-75
2023/06/21 07:56:19;;;;;;;8.35;7.30;;;;;;;25.57;48.00;99630.53;5081900;28;20032;-76
2023/06/21 07:58:46;;;;;;;7.72;7.03;;;;;;;25.81;47.54;99657.81;5070436;28;20082;-77
2023/06/21 08:01:12;;;;;;;6.95;6.35;;;;;;;25.97;47.44;99670.22;5081288;28;20531;-77
2023/06/21 08:03:38;;;;;;;7.65;6.95;;;;;;;26.03;47.06;99664.81;5079778;28;20052;-76
2023/06/21 08:06:04;;;;;;;8.40;7.63;;;;;;;26.05;47.39;99674.28;5072068;28;20048;-75
2023/06/21 08:08:29;;;;;;;7.93;7.22;;;;;;;26.37;47.32;99692.84;5073272;28;20096;-75
2023/06/21 08:10:56;;;;;;;9.63;6.65;;;;;;;26.16;46.90;99656.91;5073318;28;20044;-76
2023/06/21 08:13:22;;;;;;;7.03;6.43;;;;;;;26.31;45.99;99656.00;5069879;28;20111;-76
2023/06/21 08:15:49;;;;;;;7.40;6.80;;;;;;;26.54;45.75;99689.75;5071978;28;20021;-76
2023/06/21 08:18:14;;;;;;;7.30;6.70;;;;;;;26.40;45.41;99648.16;5074698;28;20027;-76
2023/06/21 08:20:41;;;;;;;6.40;5.80;;;;;;;26.80;44.76;99698.56;5072169;28;20016;-77
2023/06/21 08:23:07;;;;;;;6.70;6.07;;;;;;;26.95;43.86;99697.66;5071549;28;20516;-77
2023/06/21 08:25:33;;;;;;;9.45;6.43;;;;;;;26.82;43.67;99666.59;5073356;28;20028;-77
2023/06/21 08:27:58;;;;;;;5.40;5.00;;;;;;;27.01;42.76;99683.81;5071759;28;20103;-78
2023/06/21 08:30:24;;;;;;;7.97;7.22;;;;;;;26.65;42.07;99620.91;5075339;28;20111;-77
2023/06/21 08:32:50;;;;;;;6.82;6.22;;;;;;;27.20;41.67;99695.59;5067746;28;20036;-76
2023/06/21 08:35:16;;;;;;;5.82;5.20;;;;;;;27.01;40.92;99650.50;5077099;28;20024;-77
2023/06/21 08:37:56;;;;;;;6.72;5.72;;;;;;;26.86;40.70;99608.84;5073272;28;20021;-77
2023/06/21 08:40:30;;;;;;;6.28;5.78;;;;;;;27.47;40.84;99694.28;5070149;28;20063;-77
2023/06/21 08:42:56;;;;;;;6.15;5.65;;;;;;;27.43;40.97;99671.53;5071534;28;20024;-77
2023/06/21 08:45:22;;;;;;;6.50;5.88;;;;;;;27.47;40.43;99662.53;5071268;28;20561;-77
2023/06/21 08:47:49;;;;;;;7.53;6.82;;;;;;;27.62;40.54;99677.09;5071544;28;20481;-77
2023/06/21 08:50:16;;;;;;;8.05;5.95;;;;;;;27.63;40.37;99674.09;5071647;28;20059;-76
2023/06/21 08:52:45;;;;;;;7.07;6.47;;;;;;;27.44;39.92;99643.31;5071334;28;20044;-77
2023/06/21 08:55:13;;;;;;;5.68;5.18;;;;;;;27.94;39.64;99687.34;5082795;28;20022;-77
2023/06/21 08:57:46;;;;;;;5.20;4.78;;;;;;;27.66;39.27;99649.13;5070029;28;20048;-77
2023/06/21 09:00:14;;;;;;;6.07;5.35;;;;;;;27.67;39.36;99631.75;5064690;28;20570;-77
2023/06/21 09:02:52;;;;;;;8.02;5.75;;;;;;;27.81;39.41;99627.22;5069743;28;20413;-77
2023/06/21 09:05:33;;;;;;;5.55;5.05;;;;;;;28.39;38.87;99692.25;5071107;28;20090;-77
2023/06/21 09:08:00;;;;;;;6.43;5.35;;;;;;;28.34;38.56;99665.16;5074333;28;20024;-78
2023/06/21 09:10:28;;;;;;;5.53;4.97;;;;;;;28.28;38.03;99636.47;5079717;28;20020;-76
2023/06/21 09:12:56;;;;;;;6.28;5.20;;;;;;;28.52;37.74;99644.53;5066996;28;20115;-76
2023/06/21 09:15:23;;;;;;;5.72;5.20;;;;;;;28.88;37.38;99676.66;5073882;28;20016;-77
2023/06/21 09:17:50;;;;;;;9.93;8.95;;;;;;;28.88;37.82;99668.50;5058536;28;20409;-78
2023/06/21 09:20:16;;;;;;;7.13;6.50;;;;;;;28.97;36.86;99628.66;5060366;28;20467;-77
2023/06/21 09:22:46;;;;;;;5.80;5.28;;;;;;;29.44;36.84;99679.28;5071163;28;20451;-76
2023/06/21 09:25:12;;;;;;;6.85;6.15;;;;;;;29.43;36.40;99666.81;5074402;28;20035;-76
2023/06/21 09:27:38;;;;;;;6.55;5.40;;;;;;;29.53;35.60;99663.91;5070141;28;20051;-76
2023/06/21 09:30:04;;;;;;;5.80;5.10;;;;;;;29.50;35.97;99655.53;5070308;28;20055;-76
2023/06/21 09:32:30;;;;;;;5.20;4.70;;;;;;;29.72;34.76;99661.91;5070620;28;20024;-76
2023/06/21 09:34:55;;;;;;;5.22;4.75;;;;;;;30.09;34.93;99695.53;5070864;28;20032;-76
2023/06/21 09:37:34;;;;;;;6.35;4.40;;;;;;;29.99;34.13;99639.34;5070394;28;20101;-76
2023/06/21 09:40:00;;;;;;;7.38;6.68;;;;;;;30.15;34.42;99649.94;5070949;28;20021;-77
2023/06/21 09:42:28;;;;;;;7.40;5.88;;;;;;;30.12;34.30;99626.84;5069430;28;20032;-77
2023/06/21 09:44:54;;;;;;;5.28;4.78;;;;;;;30.57;33.70;99676.81;5070126;28;20032;-76
2023/06/21 09:47:20;;;;;;;6.28;4.78;;;;;;;30.67;32.91;99667.63;5069067;28;20017;-76
2023/06/21 09:49:49;;;;;;;5.93;5.43;;;;;;;30.90;33.07;99677.44;5069026;28;20035;-76
2023/06/21 09:52:20;;;;;;;5.28;4.78;;;;;;;31.08;32.63;99688.47;5070171;28;20451;-77
2023/06/21 09:54:46;;;;;;;6.70;6.05;;;;;;;31.05;33.00;99680.91;5069155;28;20037;-76
2023/06/21 09:57:12;;;;;;;5.75;5.25;;;;;;;31.21;32.85;99684.91;5077697;28;20075;-75
2023/06/21 09:59:39;;;;;;;6.80;5.38;;;;;;;31.54;32.59;99694.44;5075886;28;20470;-76
2023/06/21 10:02:06;;;;;;;5.95;5.15;;;;;;;31.22;31.93;99610.16;5073070;28;20028;-75
2023/06/21 10:04:40;;;;;;;4.90;4.50;;;;;;;31.77;31.22;99686.22;5068110;28;20111;-76
2023/06/21 10:07:06;;;;;;;6.07;5.43;;;;;;;31.71;31.35;99669.16;5071969;28;20025;-77
2023/06/21 10:09:38;;;;;;;5.20;4.80;;;;;;;31.52;31.02;99625.72;5070621;28;20610;-77
2023/06/21 10:12:14;;;;;;;5.00;4.47;;;;;;;32.01;30.68;99677.66;5067874;28;20028;-75
2023/06/21 10:14:41;;;;;;;4.95;4.55;;;;;;;31.93;30.59;99643.69;5070580;28;20025;-75
2023/06/21 10:17:07;;;;;;;6.78;4.72;;;;;;;32.34;29.96;99683.53;5069901;28;20093;-76
2023/06/21 10:19:34;;;;;;;6.13;5.03;;;;;;;32.43;30.24;99687.91;5069340;28;20581;-77
2023/06/21 10:22:08;;;;;;;6.05;5.00;;;;;;;32.54;29.88;99680.19;5075813;28;20020;-77
2023/06/21 10:24:40;;;;;;;6.35;5.85;;;;;;;32.63;29.05;99683.72;5073181;28;20029;-74
2023/06/21 10:27:06;;;;;;;4.47;4.15;;;;;;;32.58;29.27;99658.47;5070021;28;20029;-75
2023/06/21 10:29:33;;;;;;;8.80;8.00;;;;;;;32.73;29.84;99667.03;5069050;28;20109;-75
2023/06/21 10:32:05;;;;;;;8.25;7.53;;;;;;;32.79;29.70;99638.44;5069136;28;20054;-77
2023/06/21 10:34:49;;;;;;;5.72;5.20;;;;;;;33.25;28.06;99682.63;5072892;28;20040;-75
2023/06/21 10:37:37;;;;;;;8.15;7.35;;;;;;;33.26;29.14;99652.19;5069405;28;20025;-77
2023/06/21 10:40:06;;;;;;;4.90;4.32;;;;;;;33.15;28.54;99616.16;5069321;28;20074;-77
2023/06/21 10:42:32;;;;;;;6.25;4.63;;;;;;;33.47;29.23;99653.16;5073796;28;20090;-76
2023/06/21 10:44:59;;;;;;;6.50;5.00;;;;;;;33.27;28.57;99623.69;5072544;28;20032;-76
2023/06/21 10:47:25;;;;;;;5.80;5.30;;;;;;;33.68;28.29;99657.91;5074099;28;20085;-76
2023/06/21 10:49:53;;;;;;;4.88;4.47;;;;;;;33.67;28.08;99650.81;5079748;28;20035;-75
2023/06/21 10:52:21;;;;;;;6.05;5.45;;;;;;;33.80;28.50;99655.25;5070608;28;20034;-77
2023/06/21 10:54:48;;;;;;;5.55;5.05;;;;;;;33.84;28.28;99649.97;5084287;28;20024;-76
2023/06/21 10:57:15;;;;;;;5.85;5.22;;;;;;;33.75;28.54;99630.81;5073159;28;20059;-75
2023/06/21 10:59:42;;;;;;;6.50;5.93;;;;;;;33.69;27.79;99602.00;5076077;28;20052;-78
2023/06/21 11:02:08;;;;;;;6.90;6.35;;;;;;;33.84;28.01;99603.41;5074038;28;20516;-75
2023/06/21 11:05:11;;;;;;;7.15;6.47;;;;;;;34.31;27.99;99646.00;5077731;28;20100;-77
2023/06/21 11:07:37;;;;;;;6.85;6.35;;;;;;;34.35;28.41;99627.75;5067898;28;20031;-76
2023/06/21 11:10:06;;;;;;;5.57;5.07;;;;;;;34.54;27.66;99642.94;5072602;28;20033;-74
2023/06/21 11:12:34;;;;;;;6.30;5.70;;;;;;;34.51;27.68;99614.25;5076156;28;20020;-75
2023/06/21 11:15:00;;;;;;;4.95;4.47;;;;;;;34.66;27.57;99630.09;5075295;28;20020;-78
2023/06/21 11:17:26;;;;;;;5.20;4.68;;;;;;;34.50;27.08;99589.91;5071927;28;20035;-76
2023/06/21 11:19:52;;;;;;;7.25;6.65;;;;;;;34.54;27.73;99586.16;5070968;28;20025;-76
2023/06/21 11:22:24;;;;;;;5.22;4.82;;;;;;;34.98;27.42;99639.53;5072305;28;20082;-77
2023/06/21 11:24:57;;;;;;;5.57;5.07;;;;;;;34.66;26.72;99594.44;5074549;28;20107;-76
2023/06/21 11:27:25;;;;;;;5.60;5.10;;;;;;;34.79;26.86;99619.16;5072428;28;20020;-77
2023/06/21 11:30:09;;;;;;;5.22;4.80;;;;;;;34.87;25.88;99618.31;5073448;28;20081;-76
2023/06/21 11:32:37;;;;;;;5.03;4.60;;;;;;;34.59;26.80;99616.13;5069804;28;20044;-75